sensor_id;sensor_type;location;lat;lon;timestamp;P1;durP1;ratioP1;P2;durP2;ratioP2
13406;SDS011;6774;48.208;10.766;2023-05-09T00:01:50;6.47;;;5.97;;
13406;SDS011;6774;48.208;10.766;2023-05-09T00:04:17;6.77;;;6.37;;
13406;SDS011;6774;48.208;10.766;2023-05-09T00:06:46;4.93;;;4.63;;
13406;SDS011;6774;48.208;10.766;2023-05-09T00:09:15;2.20;;;2.10;;
13406;SDS011;6774;48.208;10.766;2023-05-09T00:11:43;1.33;;;1.33;;
13406;SDS011;6774;48.208;10.766;2023-05-09T00:14:11;2.20;;;2.10;;
13406;SDS011;6774;48.208;10.766;2023-05-09T00:16:39;2.40;;;2.30;;
13406;SDS011;6774;48.208;10.766;2023-05-09T00:19:06;2.90;;;2.80;;
13406;SDS011;6774;48.208;10.766;2023-05-09T00:21:35;3.30;;;3.13;;
13406;SDS011;6774;48.208;10.766;2023-05-09T00:24:03;3.07;;;2.80;;
13406;SDS011;6774;48.208;10.766;2023-05-09T00:26:33;4.63;;;4.33;;
13406;SDS011;6774;48.208;10.766;2023-05-09T00:29:00;3.83;;;3.63;;
13406;SDS011;6774;48.208;10.766;2023-05-09T00:31:28;3.43;;;3.23;;
13406;SDS011;6774;48.208;10.766;2023-05-09T00:33:56;4.80;;;4.50;;
13406;SDS011;6774;48.208;10.766;2023-05-09T00:36:24;4.10;;;3.90;;
13406;SDS011;6774;48.208;10.766;2023-05-09T00:38:52;6.77;;;6.30;;
13406;SDS011;6774;48.208;10.766;2023-05-09T00:41:20;6.53;;;6.10;;
13406;SDS011;6774;48.208;10.766;2023-05-09T00:43:49;7.07;;;6.47;;
13406;SDS011;6774;48.208;10.766;2023-05-09T00:46:17;7.53;;;7.03;;
13406;SDS011;6774;48.208;10.766;2023-05-09T00:48:44;8.93;;;8.13;;
13406;SDS011;6774;48.208;10.766;2023-05-09T00:51:12;7.07;;;6.53;;
13406;SDS011;6774;48.208;10.766;2023-05-09T00:53:40;6.73;;;6.30;;
13406;SDS011;6774;48.208;10.766;2023-05-09T00:56:08;6.83;;;6.40;;
13406;SDS011;6774;48.208;10.766;2023-05-09T00:58:37;7.30;;;6.80;;
13406;SDS011;6774;48.208;10.766;2023-05-09T01:01:06;8.43;;;7.73;;
13406;SDS011;6774;48.208;10.766;2023-05-09T01:03:34;5.70;;;5.30;;
13406;SDS011;6774;48.208;10.766;2023-05-09T02:13:15;3.13;;;2.93;;
13406;SDS011;6774;48.208;10.766;2023-05-09T02:15:43;3.63;;;3.43;;
13406;SDS011;6774;48.208;10.766;2023-05-09T02:18:11;1.93;;;1.83;;
13406;SDS011;6774;48.208;10.766;2023-05-09T02:20:39;2.27;;;2.10;;
13406;SDS011;6774;48.208;10.766;2023-05-09T02:23:07;2.20;;;2.10;;
13406;SDS011;6774;48.208;10.766;2023-05-09T02:25:35;3.57;;;3.27;;
13406;SDS011;6774;48.208;10.766;2023-05-09T02:28:05;3.77;;;3.53;;
13406;SDS011;6774;48.208;10.766;2023-05-09T02:30:37;2.50;;;2.40;;
13406;SDS011;6774;48.208;10.766;2023-05-09T02:33:08;1.80;;;1.70;;
13406;SDS011;6774;48.208;10.766;2023-05-09T02:35:39;1.63;;;1.53;;
13406;SDS011;6774;48.208;10.766;2023-05-09T02:38:10;1.30;;;1.30;;
13406;SDS011;6774;48.208;10.766;2023-05-09T02:40:40;1.40;;;1.30;;
13406;SDS011;6774;48.208;10.766;2023-05-09T02:43:08;1.77;;;1.67;;
13406;SDS011;6774;48.208;10.766;2023-05-09T02:45:38;2.07;;;1.97;;
13406;SDS011;6774;48.208;10.766;2023-05-09T02:48:06;1.90;;;1.80;;
13406;SDS011;6774;48.208;10.766;2023-05-09T02:50:34;1.97;;;1.87;;
13406;SDS011;6774;48.208;10.766;2023-05-09T02:53:04;2.23;;;2.13;;
13406;SDS011;6774;48.208;10.766;2023-05-09T02:55:32;2.07;;;1.97;;
13406;SDS011;6774;48.208;10.766;2023-05-09T02:58:00;2.33;;;2.23;;
13406;SDS011;6774;48.208;10.766;2023-05-09T03:00:41;2.27;;;2.17;;
13406;SDS011;6774;48.208;10.766;2023-05-09T03:03:11;2.50;;;2.33;;
13406;SDS011;6774;48.208;10.766;2023-05-09T03:05:39;2.90;;;2.70;;
13406;SDS011;6774;48.208;10.766;2023-05-09T03:08:07;3.80;;;3.60;;
13406;SDS011;6774;48.208;10.766;2023-05-09T03:10:35;3.97;;;3.77;;
13406;SDS011;6774;48.208;10.766;2023-05-09T03:13:03;4.30;;;4.00;;
13406;SDS011;6774;48.208;10.766;2023-05-09T03:15:31;3.63;;;3.43;;
13406;SDS011;6774;48.208;10.766;2023-05-09T03:18:00;5.17;;;4.87;;
13406;SDS011;6774;48.208;10.766;2023-05-09T03:20:28;3.07;;;2.90;;
13406;SDS011;6774;48.208;10.766;2023-05-09T03:22:56;2.63;;;2.53;;
13406;SDS011;6774;48.208;10.766;2023-05-09T03:25:23;3.10;;;3.00;;
13406;SDS011;6774;48.208;10.766;2023-05-09T03:27:52;2.47;;;2.37;;
13406;SDS011;6774;48.208;10.766;2023-05-09T03:30:21;2.23;;;2.13;;
13406;SDS011;6774;48.208;10.766;2023-05-09T03:32:49;1.63;;;1.53;;
13406;SDS011;6774;48.208;10.766;2023-05-09T03:35:19;2.10;;;2.00;;
13406;SDS011;6774;48.208;10.766;2023-05-09T03:37:47;2.17;;;2.07;;
13406;SDS011;6774;48.208;10.766;2023-05-09T03:40:15;1.90;;;1.80;;
13406;SDS011;6774;48.208;10.766;2023-05-09T03:42:48;1.37;;;1.37;;
13406;SDS011;6774;48.208;10.766;2023-05-09T03:45:16;2.13;;;2.03;;
13406;SDS011;6774;48.208;10.766;2023-05-09T03:47:45;2.20;;;2.10;;
13406;SDS011;6774;48.208;10.766;2023-05-09T03:50:14;2.27;;;2.17;;
13406;SDS011;6774;48.208;10.766;2023-05-09T03:52:44;3.33;;;3.13;;
13406;SDS011;6774;48.208;10.766;2023-05-09T03:55:15;3.87;;;3.47;;
13406;SDS011;6774;48.208;10.766;2023-05-09T03:57:43;3.93;;;3.73;;
13406;SDS011;6774;48.208;10.766;2023-05-09T04:00:12;8.63;;;7.73;;
13406;SDS011;6774;48.208;10.766;2023-05-09T04:02:43;4.60;;;4.23;;
13406;SDS011;6774;48.208;10.766;2023-05-09T04:05:21;5.63;;;5.13;;
13406;SDS011;6774;48.208;10.766;2023-05-09T04:07:50;7.20;;;6.53;;
13406;SDS011;6774;48.208;10.766;2023-05-09T04:10:18;4.97;;;4.17;;
13406;SDS011;6774;48.208;10.766;2023-05-09T04:12:47;3.33;;;3.13;;
13406;SDS011;6774;48.208;10.766;2023-05-09T04:15:16;3.80;;;3.60;;
13406;SDS011;6774;48.208;10.766;2023-05-09T04:17:44;2.87;;;2.70;;
13406;SDS011;6774;48.208;10.766;2023-05-09T04:20:11;3.33;;;3.13;;
13406;SDS011;6774;48.208;10.766;2023-05-09T04:22:41;3.30;;;3.03;;
13406;SDS011;6774;48.208;10.766;2023-05-09T04:25:14;4.37;;;4.07;;
13406;SDS011;6774;48.208;10.766;2023-05-09T04:27:44;3.70;;;3.50;;
13406;SDS011;6774;48.208;10.766;2023-05-09T04:30:12;4.57;;;4.20;;
13406;SDS011;6774;48.208;10.766;2023-05-09T04:32:41;3.60;;;3.40;;
13406;SDS011;6774;48.208;10.766;2023-05-09T04:35:11;4.80;;;4.53;;
13406;SDS011;6774;48.208;10.766;2023-05-09T04:37:44;3.80;;;3.53;;
13406;SDS011;6774;48.208;10.766;2023-05-09T04:40:11;5.50;;;5.20;;
13406;SDS011;6774;48.208;10.766;2023-05-09T04:42:48;6.10;;;5.70;;
13406;SDS011;6774;48.208;10.766;2023-05-09T04:45:18;5.03;;;4.63;;
13406;SDS011;6774;48.208;10.766;2023-05-09T04:47:47;6.13;;;5.83;;
13406;SDS011;6774;48.208;10.766;2023-05-09T04:50:15;5.60;;;5.27;;
13406;SDS011;6774;48.208;10.766;2023-05-09T04:52:42;5.50;;;5.10;;
13406;SDS011;6774;48.208;10.766;2023-05-09T04:55:10;6.60;;;6.17;;
13406;SDS011;6774;48.208;10.766;2023-05-09T04:57:42;6.93;;;6.43;;
13406;SDS011;6774;48.208;10.766;2023-05-09T05:00:12;8.60;;;8.00;;
13406;SDS011;6774;48.208;10.766;2023-05-09T05:02:43;7.87;;;7.17;;
13406;SDS011;6774;48.208;10.766;2023-05-09T05:05:11;7.27;;;6.80;;
13406;SDS011;6774;48.208;10.766;2023-05-09T05:07:41;8.37;;;7.73;;
13406;SDS011;6774;48.208;10.766;2023-05-09T05:10:13;8.27;;;7.53;;
13406;SDS011;6774;48.208;10.766;2023-05-09T05:12:45;9.50;;;8.80;;
13406;SDS011;6774;48.208;10.766;2023-05-09T05:15:15;8.27;;;7.67;;
13406;SDS011;6774;48.208;10.766;2023-05-09T05:17:46;10.70;;;9.80;;
13406;SDS011;6774;48.208;10.766;2023-05-09T05:20:18;12.80;;;11.60;;
13406;SDS011;6774;48.208;10.766;2023-05-09T05:22:47;12.53;;;11.33;;
13406;SDS011;6774;48.208;10.766;2023-05-09T05:25:16;11.53;;;10.37;;
13406;SDS011;6774;48.208;10.766;2023-05-09T05:27:46;11.47;;;10.43;;
13406;SDS011;6774;48.208;10.766;2023-05-09T05:30:16;11.67;;;10.67;;
13406;SDS011;6774;48.208;10.766;2023-05-09T05:32:44;14.50;;;13.20;;
13406;SDS011;6774;48.208;10.766;2023-05-09T05:35:14;13.30;;;12.07;;
13406;SDS011;6774;48.208;10.766;2023-05-09T05:37:42;12.53;;;11.33;;
13406;SDS011;6774;48.208;10.766;2023-05-09T05:40:13;13.47;;;12.10;;
13406;SDS011;6774;48.208;10.766;2023-05-09T05:42:43;12.80;;;11.57;;
13406;SDS011;6774;48.208;10.766;2023-05-09T05:45:11;11.07;;;10.07;;
13406;SDS011;6774;48.208;10.766;2023-05-09T05:47:45;12.27;;;11.10;;
13406;SDS011;6774;48.208;10.766;2023-05-09T05:50:13;10.30;;;9.40;;
13406;SDS011;6774;48.208;10.766;2023-05-09T05:52:41;13.23;;;12.13;;
13406;SDS011;6774;48.208;10.766;2023-05-09T05:55:12;11.13;;;10.23;;
13406;SDS011;6774;48.208;10.766;2023-05-09T05:57:40;14.83;;;10.83;;
13406;SDS011;6774;48.208;10.766;2023-05-09T06:00:12;13.03;;;12.00;;
13406;SDS011;6774;48.208;10.766;2023-05-09T06:02:50;11.20;;;10.10;;
13406;SDS011;6774;48.208;10.766;2023-05-09T06:05:26;12.27;;;11.10;;
13406;SDS011;6774;48.208;10.766;2023-05-09T06:07:54;12.00;;;10.73;;
13406;SDS011;6774;48.208;10.766;2023-05-09T06:10:21;11.57;;;10.63;;
13406;SDS011;6774;48.208;10.766;2023-05-09T06:12:49;11.13;;;10.30;;
13406;SDS011;6774;48.208;10.766;2023-05-09T06:15:17;11.43;;;10.43;;
13406;SDS011;6774;48.208;10.766;2023-05-09T06:17:48;10.53;;;9.67;;
13406;SDS011;6774;48.208;10.766;2023-05-09T06:20:17;12.27;;;11.30;;
13406;SDS011;6774;48.208;10.766;2023-05-09T06:22:44;13.63;;;12.50;;
13406;SDS011;6774;48.208;10.766;2023-05-09T06:25:12;13.03;;;11.73;;
13406;SDS011;6774;48.208;10.766;2023-05-09T06:27:41;13.60;;;12.23;;
13406;SDS011;6774;48.208;10.766;2023-05-09T06:30:09;10.90;;;9.90;;
13406;SDS011;6774;48.208;10.766;2023-05-09T06:32:52;10.73;;;10.03;;
13406;SDS011;6774;48.208;10.766;2023-05-09T06:35:20;21.53;;;10.97;;
13406;SDS011;6774;48.208;10.766;2023-05-09T06:37:48;10.47;;;9.67;;
13406;SDS011;6774;48.208;10.766;2023-05-09T06:40:16;10.77;;;9.90;;
13406;SDS011;6774;48.208;10.766;2023-05-09T06:42:44;11.57;;;10.67;;
13406;SDS011;6774;48.208;10.766;2023-05-09T06:45:13;12.40;;;11.33;;
13406;SDS011;6774;48.208;10.766;2023-05-09T06:47:41;11.77;;;10.53;;
13406;SDS011;6774;48.208;10.766;2023-05-09T06:50:10;12.20;;;11.17;;
13406;SDS011;6774;48.208;10.766;2023-05-09T06:52:38;11.73;;;10.63;;
13406;SDS011;6774;48.208;10.766;2023-05-09T06:55:06;11.30;;;10.40;;
13406;SDS011;6774;48.208;10.766;2023-05-09T06:57:34;15.47;;;12.23;;
13406;SDS011;6774;48.208;10.766;2023-05-09T07:00:03;11.17;;;10.20;;
13406;SDS011;6774;48.208;10.766;2023-05-09T07:02:31;20.53;;;16.20;;
13406;SDS011;6774;48.208;10.766;2023-05-09T07:04:59;12.53;;;11.43;;
13406;SDS011;6774;48.208;10.766;2023-05-09T07:07:28;12.23;;;11.17;;
13406;SDS011;6774;48.208;10.766;2023-05-09T07:09:56;16.13;;;12.70;;
13406;SDS011;6774;48.208;10.766;2023-05-09T07:12:36;12.00;;;11.00;;
13406;SDS011;6774;48.208;10.766;2023-05-09T07:15:04;14.60;;;13.17;;
13406;SDS011;6774;48.208;10.766;2023-05-09T07:17:33;14.27;;;12.83;;
13406;SDS011;6774;48.208;10.766;2023-05-09T07:20:01;11.63;;;10.63;;
13406;SDS011;6774;48.208;10.766;2023-05-09T07:22:31;13.87;;;12.43;;
13406;SDS011;6774;48.208;10.766;2023-05-09T07:25:02;15.83;;;14.43;;
13406;SDS011;6774;48.208;10.766;2023-05-09T07:27:31;13.77;;;12.50;;
13406;SDS011;6774;48.208;10.766;2023-05-09T07:29:59;15.80;;;14.47;;
13406;SDS011;6774;48.208;10.766;2023-05-09T07:32:26;21.00;;;14.83;;
13406;SDS011;6774;48.208;10.766;2023-05-09T07:34:54;15.20;;;13.87;;
13406;SDS011;6774;48.208;10.766;2023-05-09T07:37:22;12.63;;;11.60;;
13406;SDS011;6774;48.208;10.766;2023-05-09T07:39:51;16.50;;;15.07;;
13406;SDS011;6774;48.208;10.766;2023-05-09T07:42:19;13.87;;;12.57;;
13406;SDS011;6774;48.208;10.766;2023-05-09T07:44:47;15.17;;;13.77;;
13406;SDS011;6774;48.208;10.766;2023-05-09T07:47:15;16.20;;;15.00;;
13406;SDS011;6774;48.208;10.766;2023-05-09T07:49:43;16.70;;;12.73;;
13406;SDS011;6774;48.208;10.766;2023-05-09T07:52:11;12.43;;;11.43;;
13406;SDS011;6774;48.208;10.766;2023-05-09T07:54:39;12.17;;;11.27;;
13406;SDS011;6774;48.208;10.766;2023-05-09T07:57:08;14.83;;;13.73;;
13406;SDS011;6774;48.208;10.766;2023-05-09T07:59:36;13.00;;;11.93;;
13406;SDS011;6774;48.208;10.766;2023-05-09T08:02:04;15.43;;;14.13;;
13406;SDS011;6774;48.208;10.766;2023-05-09T08:04:31;13.23;;;12.07;;
13406;SDS011;6774;48.208;10.766;2023-05-09T08:06:59;13.43;;;12.33;;
13406;SDS011;6774;48.208;10.766;2023-05-09T08:09:29;12.27;;;11.40;;
13406;SDS011;6774;48.208;10.766;2023-05-09T08:11:56;13.07;;;12.10;;
13406;SDS011;6774;48.208;10.766;2023-05-09T08:14:26;13.23;;;12.03;;
13406;SDS011;6774;48.208;10.766;2023-05-09T08:16:53;11.27;;;10.50;;
13406;SDS011;6774;48.208;10.766;2023-05-09T08:19:21;14.57;;;13.13;;
13406;SDS011;6774;48.208;10.766;2023-05-09T08:21:51;14.10;;;12.83;;
13406;SDS011;6774;48.208;10.766;2023-05-09T08:24:19;11.23;;;10.53;;
13406;SDS011;6774;48.208;10.766;2023-05-09T08:26:47;12.63;;;11.60;;
13406;SDS011;6774;48.208;10.766;2023-05-09T08:29:15;13.77;;;12.33;;
13406;SDS011;6774;48.208;10.766;2023-05-09T08:31:44;12.17;;;11.20;;
13406;SDS011;6774;48.208;10.766;2023-05-09T08:34:12;12.47;;;11.47;;
13406;SDS011;6774;48.208;10.766;2023-05-09T08:36:40;14.07;;;12.70;;
13406;SDS011;6774;48.208;10.766;2023-05-09T08:39:10;11.10;;;10.30;;
13406;SDS011;6774;48.208;10.766;2023-05-09T08:41:38;13.90;;;12.83;;
13406;SDS011;6774;48.208;10.766;2023-05-09T08:44:06;11.03;;;10.23;;
13406;SDS011;6774;48.208;10.766;2023-05-09T08:46:35;11.80;;;10.90;;
13406;SDS011;6774;48.208;10.766;2023-05-09T08:49:07;10.13;;;9.43;;
13406;SDS011;6774;48.208;10.766;2023-05-09T08:51:35;13.13;;;11.80;;
13406;SDS011;6774;48.208;10.766;2023-05-09T08:54:04;11.00;;;10.00;;
13406;SDS011;6774;48.208;10.766;2023-05-09T08:56:32;12.90;;;11.93;;
13406;SDS011;6774;48.208;10.766;2023-05-09T08:59:02;10.03;;;9.33;;
13406;SDS011;6774;48.208;10.766;2023-05-09T09:01:31;11.37;;;10.53;;
13406;SDS011;6774;48.208;10.766;2023-05-09T09:04:00;11.37;;;10.57;;
13406;SDS011;6774;48.208;10.766;2023-05-09T09:06:30;11.90;;;10.83;;
13406;SDS011;6774;48.208;10.766;2023-05-09T09:09:00;9.53;;;8.93;;
13406;SDS011;6774;48.208;10.766;2023-05-09T09:11:31;10.97;;;10.23;;
13406;SDS011;6774;48.208;10.766;2023-05-09T09:14:01;9.87;;;9.17;;
13406;SDS011;6774;48.208;10.766;2023-05-09T09:16:32;9.67;;;9.07;;
13406;SDS011;6774;48.208;10.766;2023-05-09T09:19:03;10.77;;;9.97;;
13406;SDS011;6774;48.208;10.766;2023-05-09T09:21:37;8.83;;;8.33;;
13406;SDS011;6774;48.208;10.766;2023-05-09T09:24:07;8.60;;;7.93;;
13406;SDS011;6774;48.208;10.766;2023-05-09T09:26:37;8.07;;;7.60;;
13406;SDS011;6774;48.208;10.766;2023-05-09T09:29:13;15.67;;;9.97;;
13406;SDS011;6774;48.208;10.766;2023-05-09T09:31:43;9.37;;;8.77;;
13406;SDS011;6774;48.208;10.766;2023-05-09T09:34:11;9.47;;;8.83;;
13406;SDS011;6774;48.208;10.766;2023-05-09T09:36:41;7.90;;;7.40;;
13406;SDS011;6774;48.208;10.766;2023-05-09T09:39:09;7.87;;;7.43;;
13406;SDS011;6774;48.208;10.766;2023-05-09T09:41:40;8.17;;;7.47;;
13406;SDS011;6774;48.208;10.766;2023-05-09T09:44:10;13.18;;;12.00;;
13406;SDS011;6774;48.208;10.766;2023-05-09T09:46:42;9.98;;;9.35;;
13406;SDS011;6774;48.208;10.766;2023-05-09T09:49:12;8.27;;;7.82;;
13406;SDS011;6774;48.208;10.766;2023-05-09T09:51:42;6.93;;;6.53;;
13406;SDS011;6774;48.208;10.766;2023-05-09T09:54:10;7.30;;;6.90;;
13406;SDS011;6774;48.208;10.766;2023-05-09T09:56:42;7.55;;;7.05;;
13406;SDS011;6774;48.208;10.766;2023-05-09T09:59:11;6.32;;;6.03;;
13406;SDS011;6774;48.208;10.766;2023-05-09T10:01:53;6.50;;;6.20;;
13406;SDS011;6774;48.208;10.766;2023-05-09T10:04:22;7.28;;;6.88;;
13406;SDS011;6774;48.208;10.766;2023-05-09T10:06:53;8.63;;;8.13;;
13406;SDS011;6774;48.208;10.766;2023-05-09T10:09:22;8.60;;;8.10;;
13406;SDS011;6774;48.208;10.766;2023-05-09T10:11:50;6.50;;;6.20;;
13406;SDS011;6774;48.208;10.766;2023-05-09T10:14:20;6.80;;;6.50;;
13406;SDS011;6774;48.208;10.766;2023-05-09T10:16:49;5.82;;;5.60;;
13406;SDS011;6774;48.208;10.766;2023-05-09T10:19:19;5.05;;;4.75;;
13406;SDS011;6774;48.208;10.766;2023-05-09T10:21:48;5.70;;;5.30;;
13406;SDS011;6774;48.208;10.766;2023-05-09T10:24:25;10.60;;;6.88;;
13406;SDS011;6774;48.208;10.766;2023-05-09T10:26:55;7.13;;;6.72;;
13406;SDS011;6774;48.208;10.766;2023-05-09T10:29:29;7.00;;;6.50;;
13406;SDS011;6774;48.208;10.766;2023-05-09T10:32:07;5.50;;;5.20;;
13406;SDS011;6774;48.208;10.766;2023-05-09T10:34:42;6.40;;;5.95;;
13406;SDS011;6774;48.208;10.766;2023-05-09T10:37:14;7.82;;;7.22;;
13406;SDS011;6774;48.208;10.766;2023-05-09T10:39:44;6.78;;;6.25;;
13406;SDS011;6774;48.208;10.766;2023-05-09T10:42:13;9.25;;;8.57;;
13406;SDS011;6774;48.208;10.766;2023-05-09T10:44:41;7.03;;;6.63;;
13406;SDS011;6774;48.208;10.766;2023-05-09T10:47:09;6.80;;;6.50;;
13406;SDS011;6774;48.208;10.766;2023-05-09T10:49:38;4.65;;;4.45;;
13406;SDS011;6774;48.208;10.766;2023-05-09T10:52:07;7.63;;;6.97;;
13406;SDS011;6774;48.208;10.766;2023-05-09T10:54:35;6.68;;;6.28;;
13406;SDS011;6774;48.208;10.766;2023-05-09T10:57:04;4.60;;;3.88;;
13406;SDS011;6774;48.208;10.766;2023-05-09T10:59:36;6.00;;;5.60;;
13406;SDS011;6774;48.208;10.766;2023-05-09T11:02:05;4.60;;;4.40;;
13406;SDS011;6774;48.208;10.766;2023-05-09T11:04:39;6.53;;;6.05;;
13406;SDS011;6774;48.208;10.766;2023-05-09T11:07:21;6.13;;;5.75;;
13406;SDS011;6774;48.208;10.766;2023-05-09T11:09:51;4.43;;;4.05;;
13406;SDS011;6774;48.208;10.766;2023-05-09T11:12:21;5.90;;;5.53;;
13406;SDS011;6774;48.208;10.766;2023-05-09T11:14:50;5.78;;;5.40;;
13406;SDS011;6774;48.208;10.766;2023-05-09T11:17:28;4.68;;;4.47;;
13406;SDS011;6774;48.208;10.766;2023-05-09T11:19:58;4.82;;;4.63;;
13406;SDS011;6774;48.208;10.766;2023-05-09T11:22:27;5.85;;;5.35;;
13406;SDS011;6774;48.208;10.766;2023-05-09T11:24:59;4.53;;;4.32;;
13406;SDS011;6774;48.208;10.766;2023-05-09T11:27:38;5.88;;;5.57;;
13406;SDS011;6774;48.208;10.766;2023-05-09T11:30:09;6.22;;;5.70;;
13406;SDS011;6774;48.208;10.766;2023-05-09T11:32:40;6.53;;;6.18;;
13406;SDS011;6774;48.208;10.766;2023-05-09T11:35:10;5.35;;;5.05;;
13406;SDS011;6774;48.208;10.766;2023-05-09T11:37:44;5.18;;;4.97;;
13406;SDS011;6774;48.208;10.766;2023-05-09T11:40:14;6.90;;;6.50;;
13406;SDS011;6774;48.208;10.766;2023-05-09T11:42:45;5.30;;;5.00;;
13406;SDS011;6774;48.208;10.766;2023-05-09T11:45:15;6.57;;;6.28;;
13406;SDS011;6774;48.208;10.766;2023-05-09T11:47:44;6.03;;;5.63;;
13406;SDS011;6774;48.208;10.766;2023-05-09T11:50:12;6.72;;;5.28;;
13406;SDS011;6774;48.208;10.766;2023-05-09T11:52:42;5.03;;;4.82;;
13406;SDS011;6774;48.208;10.766;2023-05-09T11:55:12;7.38;;;6.88;;
13406;SDS011;6774;48.208;10.766;2023-05-09T11:57:41;5.15;;;4.85;;
13406;SDS011;6774;48.208;10.766;2023-05-09T12:00:15;5.03;;;4.35;;
13406;SDS011;6774;48.208;10.766;2023-05-09T12:02:44;3.20;;;2.95;;
13406;SDS011;6774;48.208;10.766;2023-05-09T12:05:13;5.70;;;5.50;;
13406;SDS011;6774;48.208;10.766;2023-05-09T12:07:43;5.47;;;5.20;;
13406;SDS011;6774;48.208;10.766;2023-05-09T12:10:12;5.07;;;4.88;;
13406;SDS011;6774;48.208;10.766;2023-05-09T12:12:43;5.75;;;5.43;;
13406;SDS011;6774;48.208;10.766;2023-05-09T12:15:12;5.13;;;4.82;;
13406;SDS011;6774;48.208;10.766;2023-05-09T12:17:42;4.72;;;4.22;;
13406;SDS011;6774;48.208;10.766;2023-05-09T12:20:14;3.17;;;3.05;;
13406;SDS011;6774;48.208;10.766;2023-05-09T12:22:42;5.50;;;5.20;;
13406;SDS011;6774;48.208;10.766;2023-05-09T12:25:10;4.55;;;4.28;;
13406;SDS011;6774;48.208;10.766;2023-05-09T12:27:38;5.90;;;5.40;;
13406;SDS011;6774;48.208;10.766;2023-05-09T12:30:07;5.80;;;5.45;;
13406;SDS011;6774;48.208;10.766;2023-05-09T12:32:36;5.97;;;5.70;;
13406;SDS011;6774;48.208;10.766;2023-05-09T12:35:07;4.80;;;4.55;;
13406;SDS011;6774;48.208;10.766;2023-05-09T12:37:36;4.88;;;4.35;;
13406;SDS011;6774;48.208;10.766;2023-05-09T12:40:05;4.70;;;4.50;;
13406;SDS011;6774;48.208;10.766;2023-05-09T12:42:37;3.55;;;3.35;;
13406;SDS011;6774;48.208;10.766;2023-05-09T12:45:06;3.05;;;2.92;;
13406;SDS011;6774;48.208;10.766;2023-05-09T12:47:35;4.40;;;4.20;;
13406;SDS011;6774;48.208;10.766;2023-05-09T12:50:05;4.47;;;4.28;;
13406;SDS011;6774;48.208;10.766;2023-05-09T12:52:37;7.57;;;5.15;;
13406;SDS011;6774;48.208;10.766;2023-05-09T12:55:27;3.97;;;3.78;;
13406;SDS011;6774;48.208;10.766;2023-05-09T12:57:58;3.80;;;3.60;;
13406;SDS011;6774;48.208;10.766;2023-05-09T13:00:27;3.50;;;3.30;;
13406;SDS011;6774;48.208;10.766;2023-05-09T13:02:55;4.07;;;3.88;;
13406;SDS011;6774;48.208;10.766;2023-05-09T13:05:24;2.03;;;1.92;;
13406;SDS011;6774;48.208;10.766;2023-05-09T13:07:55;3.25;;;3.05;;
13406;SDS011;6774;48.208;10.766;2023-05-09T13:10:25;2.78;;;2.65;;
13406;SDS011;6774;48.208;10.766;2023-05-09T13:12:54;3.88;;;3.47;;
13406;SDS011;6774;48.208;10.766;2023-05-09T13:15:22;2.55;;;2.40;;
13406;SDS011;6774;48.208;10.766;2023-05-09T13:17:52;3.33;;;3.08;;
13406;SDS011;6774;48.208;10.766;2023-05-09T13:20:20;5.93;;;5.63;;
13406;SDS011;6774;48.208;10.766;2023-05-09T13:22:49;5.43;;;5.03;;
13406;SDS011;6774;48.208;10.766;2023-05-09T13:25:17;3.17;;;3.08;;
13406;SDS011;6774;48.208;10.766;2023-05-09T13:27:45;3.50;;;3.30;;
13406;SDS011;6774;48.208;10.766;2023-05-09T13:30:13;5.55;;;5.25;;
13406;SDS011;6774;48.208;10.766;2023-05-09T13:32:42;4.25;;;4.05;;
13406;SDS011;6774;48.208;10.766;2023-05-09T13:35:09;3.35;;;3.15;;
13406;SDS011;6774;48.208;10.766;2023-05-09T13:37:37;3.85;;;3.65;;
13406;SDS011;6774;48.208;10.766;2023-05-09T13:40:07;5.22;;;4.97;;
13406;SDS011;6774;48.208;10.766;2023-05-09T13:42:35;5.30;;;4.93;;
13406;SDS011;6774;48.208;10.766;2023-05-09T13:45:03;5.53;;;5.13;;
13406;SDS011;6774;48.208;10.766;2023-05-09T13:47:32;5.45;;;5.05;;
13406;SDS011;6774;48.208;10.766;2023-05-09T13:50:01;3.92;;;3.72;;
13406;SDS011;6774;48.208;10.766;2023-05-09T13:52:29;4.53;;;4.22;;
13406;SDS011;6774;48.208;10.766;2023-05-09T13:54:57;5.40;;;5.00;;
13406;SDS011;6774;48.208;10.766;2023-05-09T13:57:26;5.63;;;5.32;;
13406;SDS011;6774;48.208;10.766;2023-05-09T13:59:54;5.63;;;5.40;;
13406;SDS011;6774;48.208;10.766;2023-05-09T14:02:22;8.13;;;7.65;;
13406;SDS011;6774;48.208;10.766;2023-05-09T14:04:50;7.07;;;6.68;;
13406;SDS011;6774;48.208;10.766;2023-05-09T14:07:18;6.55;;;6.03;;
13406;SDS011;6774;48.208;10.766;2023-05-09T14:09:45;5.95;;;5.40;;
13406;SDS011;6774;48.208;10.766;2023-05-09T14:12:19;7.15;;;6.55;;
13406;SDS011;6774;48.208;10.766;2023-05-09T14:14:48;9.13;;;8.20;;
13406;SDS011;6774;48.208;10.766;2023-05-09T14:17:16;5.97;;;5.47;;
13406;SDS011;6774;48.208;10.766;2023-05-09T14:19:44;6.80;;;6.40;;
13406;SDS011;6774;48.208;10.766;2023-05-09T14:22:11;7.65;;;6.95;;
13406;SDS011;6774;48.208;10.766;2023-05-09T14:24:41;5.85;;;5.47;;
13406;SDS011;6774;48.208;10.766;2023-05-09T14:27:09;7.65;;;7.05;;
13406;SDS011;6774;48.208;10.766;2023-05-09T14:29:36;10.82;;;8.00;;
13406;SDS011;6774;48.208;10.766;2023-05-09T14:32:08;6.60;;;6.10;;
13406;SDS011;6774;48.208;10.766;2023-05-09T14:34:38;7.38;;;6.97;;
13406;SDS011;6774;48.208;10.766;2023-05-09T14:37:05;10.63;;;7.68;;
13406;SDS011;6774;48.208;10.766;2023-05-09T14:39:38;7.85;;;7.15;;
13406;SDS011;6774;48.208;10.766;2023-05-09T14:42:07;7.03;;;6.43;;
13406;SDS011;6774;48.208;10.766;2023-05-09T14:44:36;5.45;;;5.15;;
13406;SDS011;6774;48.208;10.766;2023-05-09T14:47:04;8.60;;;6.50;;
13406;SDS011;6774;48.208;10.766;2023-05-09T14:49:35;6.45;;;6.15;;
13406;SDS011;6774;48.208;10.766;2023-05-09T14:52:04;7.80;;;7.40;;
13406;SDS011;6774;48.208;10.766;2023-05-09T14:54:31;5.38;;;5.13;;
13406;SDS011;6774;48.208;10.766;2023-05-09T14:57:00;7.32;;;6.93;;
13406;SDS011;6774;48.208;10.766;2023-05-09T14:59:30;7.18;;;6.78;;
13406;SDS011;6774;48.208;10.766;2023-05-09T15:02:00;7.32;;;6.93;;
13406;SDS011;6774;48.208;10.766;2023-05-09T15:04:28;7.13;;;6.75;;
13406;SDS011;6774;48.208;10.766;2023-05-09T15:06:58;7.97;;;5.60;;
13406;SDS011;6774;48.208;10.766;2023-05-09T15:09:26;7.93;;;7.40;;
13406;SDS011;6774;48.208;10.766;2023-05-09T15:11:53;8.15;;;7.45;;
13406;SDS011;6774;48.208;10.766;2023-05-09T15:14:21;6.03;;;5.72;;
13406;SDS011;6774;48.208;10.766;2023-05-09T15:16:49;6.88;;;6.38;;
13406;SDS011;6774;48.208;10.766;2023-05-09T15:19:18;6.43;;;6.03;;
13406;SDS011;6774;48.208;10.766;2023-05-09T15:21:47;20.73;;;10.77;;
13406;SDS011;6774;48.208;10.766;2023-05-09T15:24:16;7.30;;;6.47;;
13406;SDS011;6774;48.208;10.766;2023-05-09T15:26:44;8.02;;;7.53;;
13406;SDS011;6774;48.208;10.766;2023-05-09T15:29:12;8.52;;;7.93;;
13406;SDS011;6774;48.208;10.766;2023-05-09T15:31:39;7.32;;;6.93;;
13406;SDS011;6774;48.208;10.766;2023-05-09T15:34:07;8.07;;;7.47;;
13406;SDS011;6774;48.208;10.766;2023-05-09T15:36:34;7.47;;;7.05;;
13406;SDS011;6774;48.208;10.766;2023-05-09T15:39:02;8.35;;;7.85;;
13406;SDS011;6774;48.208;10.766;2023-05-09T15:41:31;7.55;;;7.13;;
13406;SDS011;6774;48.208;10.766;2023-05-09T15:43:59;9.27;;;8.48;;
13406;SDS011;6774;48.208;10.766;2023-05-09T15:46:27;8.68;;;8.15;;
13406;SDS011;6774;48.208;10.766;2023-05-09T15:48:55;7.45;;;6.93;;
13406;SDS011;6774;48.208;10.766;2023-05-09T15:51:23;7.57;;;7.13;;
13406;SDS011;6774;48.208;10.766;2023-05-09T15:53:51;6.30;;;5.80;;
13406;SDS011;6774;48.208;10.766;2023-05-09T15:56:18;7.10;;;6.53;;
13406;SDS011;6774;48.208;10.766;2023-05-09T15:58:48;8.77;;;7.93;;
13406;SDS011;6774;48.208;10.766;2023-05-09T16:01:15;8.55;;;7.85;;